createdAt,value
2019-02-17T00:00:29.759Z,0.90
2019-02-17T00:02:06.882Z,0.80
2019-02-17T00:03:41.969Z,0.60
2019-02-17T00:05:16.756Z,0.60
2019-02-17T00:06:52.296Z,0.50
2019-02-17T00:08:27.669Z,0.50
2019-02-17T00:10:02.465Z,0.50
2019-02-17T00:11:37.273Z,0.50
2019-02-17T00:13:12.438Z,0.60
2019-02-17T00:14:47.519Z,0.60
2019-02-17T00:16:22.548Z,0.50
2019-02-17T00:17:57.620Z,0.50
2019-02-17T00:19:33.164Z,0.50
2019-02-17T00:21:07.983Z,0.40
2019-02-17T00:22:42.848Z,0.20
2019-02-17T00:24:17.872Z,0.10
2019-02-17T00:25:52.810Z,0.00
2019-02-17T00:27:28.106Z,-0.10
2019-02-17T00:29:03.182Z,-0.20
2019-02-17T00:30:37.995Z,-0.20
2019-02-17T00:32:13.074Z,-0.40
2019-02-17T00:33:48.641Z,-0.40
2019-02-17T00:35:23.809Z,-0.60
2019-02-17T00:36:58.864Z,-0.70
2019-02-17T00:38:33.970Z,-0.70
2019-02-17T00:40:09.153Z,-0.70
2019-02-17T00:41:44.207Z,-0.70
2019-02-17T00:43:19.277Z,-0.50
2019-02-17T00:44:54.327Z,-0.50
2019-02-17T00:46:29.432Z,-0.50
2019-02-17T00:48:04.507Z,-0.50
2019-02-17T00:49:39.843Z,-0.60
2019-02-17T00:51:14.629Z,-0.50
2019-02-17T00:52:49.652Z,-0.20
2019-02-17T00:54:25.290Z,-0.20
2019-02-17T00:56:00.093Z,-0.10
2019-02-17T00:57:35.216Z,-0.10
2019-02-17T00:59:10.658Z,-0.10
2019-02-17T01:00:45.791Z,0.00
2019-02-17T01:02:20.903Z,0.00
2019-02-17T01:03:55.997Z,0.00
2019-02-17T01:05:30.879Z,0.00
2019-02-17T01:07:06.111Z,-0.10
2019-02-17T01:08:40.913Z,-0.10
2019-02-17T01:10:15.707Z,-0.20
2019-02-17T01:11:50.509Z,-0.20
2019-02-17T01:13:25.623Z,-0.30
2019-02-17T01:15:00.416Z,-0.30
2019-02-17T01:16:35.207Z,-0.40
2019-02-17T01:18:10.284Z,-0.50
2019-02-17T01:19:45.328Z,-0.60
2019-02-17T01:21:20.438Z,-0.70
2019-02-17T01:34:06.509Z,-0.70
2019-02-17T01:35:41.869Z,-1.00
2019-02-17T01:37:16.677Z,-1.00
2019-02-17T01:38:51.787Z,-1.00
2019-02-17T01:40:26.922Z,-1.10
2019-02-17T01:42:01.730Z,-1.10
2019-02-17T01:43:36.531Z,-1.20
2019-02-17T01:45:11.767Z,-1.20
2019-02-17T01:46:46.559Z,-1.00
2019-02-17T01:48:21.361Z,-1.00
2019-02-17T01:49:56.434Z,-0.90
2019-02-17T01:51:31.233Z,-0.80
2019-02-17T01:53:06.031Z,-0.80
2019-02-17T01:54:41.141Z,-0.80
2019-02-17T01:56:16.020Z,-0.70
2019-02-17T01:57:51.204Z,-0.50
2019-02-17T01:59:30.716Z,-0.50
2019-02-17T02:01:03.196Z,-0.40
2019-02-17T02:02:38.440Z,-0.40
2019-02-17T02:04:13.541Z,-0.40
2019-02-17T02:05:48.731Z,-0.40
2019-02-17T02:07:24.017Z,-0.40
2019-02-17T02:08:58.798Z,-0.50
2019-02-17T02:10:33.873Z,-0.40
2019-02-17T02:12:09.006Z,-0.40
2019-02-17T02:13:44.139Z,-0.40
2019-02-17T02:15:19.254Z,-0.30
2019-02-17T02:16:54.065Z,-0.40
2019-02-17T02:18:28.850Z,-0.40
2019-02-17T02:20:04.062Z,-0.40
2019-02-17T02:21:38.854Z,-0.40
2019-02-17T02:23:13.989Z,-0.50
2019-02-17T02:24:49.434Z,-0.40
2019-02-17T02:26:24.567Z,-0.40
2019-02-17T02:29:41.145Z,-0.30
2019-02-17T02:31:11.583Z,0.00
2019-02-17T04:18:39.592Z,0.00
2019-02-17T06:56:53.440Z,-0.40
2019-02-17T06:58:28.239Z,0.20
2019-02-17T07:00:16.140Z,0.40
2019-02-17T07:01:51.443Z,0.50
2019-02-17T07:03:26.266Z,0.80
2019-02-17T07:22:44.287Z,0.90
2019-02-17T07:24:19.344Z,2.30
2019-02-17T07:25:54.130Z,2.40
2019-02-17T07:27:29.204Z,2.50
2019-02-17T07:29:04.163Z,2.50
2019-02-17T07:30:39.023Z,2.60
2019-02-17T07:32:13.896Z,2.60
2019-02-17T07:33:48.925Z,2.60
2019-02-17T07:35:23.731Z,2.60
2019-02-17T07:36:58.769Z,2.70
2019-02-17T07:38:34.082Z,2.80
2019-02-17T07:40:09.300Z,2.80
2019-02-17T07:41:44.166Z,2.90
2019-02-17T07:43:19.039Z,2.90
2019-02-17T07:44:53.983Z,2.90
2019-02-17T07:46:28.787Z,3.00
2019-02-17T07:48:03.667Z,3.10
2019-02-17T07:49:38.511Z,3.20
2019-02-17T07:51:13.618Z,3.40
2019-02-17T07:52:48.456Z,3.50
2019-02-17T07:54:23.351Z,3.60
2019-02-17T07:55:58.514Z,3.70
2019-02-17T07:57:33.480Z,3.80
2019-02-17T07:59:08.274Z,3.90
2019-02-17T08:00:43.616Z,4.10
2019-02-17T08:02:19.063Z,4.20
2019-02-17T08:03:54.693Z,4.50
2019-02-17T08:05:29.485Z,4.50
2019-02-17T08:07:04.650Z,4.70
2019-02-17T08:08:40.018Z,4.80
2019-02-17T08:10:14.932Z,4.60
2019-02-17T08:11:50.228Z,4.60
2019-02-17T08:13:27.253Z,4.60
2019-02-17T08:15:02.157Z,4.80
2019-02-17T08:16:37.237Z,4.90
2019-02-17T08:18:12.047Z,5.00
2019-02-17T08:19:46.877Z,5.10
2019-02-17T08:21:21.711Z,5.40
2019-02-17T08:22:57.000Z,5.60
2019-02-17T08:24:31.828Z,5.50
2019-02-17T08:26:06.640Z,5.30
2019-02-17T08:27:41.719Z,5.30
2019-02-17T08:29:16.806Z,5.30
2019-02-17T08:30:52.157Z,5.30
2019-02-17T08:32:27.034Z,5.20
2019-02-17T08:34:02.271Z,5.20
2019-02-17T08:35:37.302Z,5.20
2019-02-17T08:37:12.130Z,5.40
2019-02-17T08:38:47.223Z,5.60
2019-02-17T08:40:22.299Z,5.60
2019-02-17T08:41:57.379Z,5.70
2019-02-17T08:43:32.261Z,5.80
2019-02-17T08:45:07.786Z,5.90
2019-02-17T08:46:45.005Z,5.90
2019-02-17T08:48:19.215Z,5.90
2019-02-17T08:49:54.286Z,6.00
2019-02-17T08:51:29.401Z,6.10
2019-02-17T08:54:38.687Z,6.00
2019-02-17T08:56:13.795Z,6.40
2019-02-17T08:57:48.857Z,6.40
2019-02-17T08:59:23.922Z,6.40
2019-02-17T09:00:59.595Z,6.30
2019-02-17T09:02:34.992Z,6.30
2019-02-17T09:04:10.078Z,6.30
2019-02-17T09:05:44.906Z,6.40
2019-02-17T09:07:19.749Z,6.60
2019-02-17T09:08:54.564Z,6.60
2019-02-17T09:10:29.368Z,6.90
2019-02-17T09:12:04.261Z,7.20
2019-02-17T09:13:39.474Z,7.30
2019-02-17T09:18:30.565Z,7.50
2019-02-17T09:20:07.929Z,8.00
2019-02-17T09:21:43.387Z,8.20
2019-02-17T09:23:18.915Z,8.10
2019-02-17T09:24:54.577Z,8.20
2019-02-17T09:26:29.837Z,8.50
2019-02-17T09:28:04.759Z,8.90
2019-02-17T09:29:39.583Z,8.90
2019-02-17T09:31:22.970Z,8.80
2019-02-17T09:32:58.172Z,8.70
2019-02-17T09:34:33.234Z,8.80
2019-02-17T09:36:08.109Z,8.50
2019-02-17T09:37:42.984Z,8.40
2019-02-17T09:39:17.815Z,8.60
2019-02-17T09:40:52.733Z,8.80
2019-02-17T09:42:27.544Z,8.90
2019-02-17T09:44:02.383Z,9.00
2019-02-17T09:45:37.440Z,9.00
2019-02-17T09:47:12.491Z,9.30
2019-02-17T09:48:47.530Z,9.30
2019-02-17T09:50:22.580Z,9.30
2019-02-17T09:51:57.653Z,9.70
2019-02-17T09:53:32.493Z,9.80
2019-02-17T09:55:08.399Z,9.80
2019-02-17T09:56:43.199Z,10.00
2019-02-17T09:58:18.263Z,10.10
2019-02-17T09:59:53.437Z,10.20
2019-02-17T10:01:28.237Z,10.20
2019-02-17T10:03:03.047Z,10.40
2019-02-17T10:04:37.942Z,10.80
2019-02-17T10:06:12.788Z,10.90
2019-02-17T10:07:47.855Z,11.10
2019-02-17T10:09:22.663Z,11.30
2019-02-17T10:10:57.736Z,10.90
2019-02-17T10:12:32.825Z,10.70
2019-02-17T10:14:07.638Z,11.10
2019-02-17T10:15:42.715Z,11.30
2019-02-17T10:17:17.605Z,11.50
2019-02-17T10:18:52.614Z,11.40
2019-02-17T10:20:27.413Z,11.50
2019-02-17T10:22:02.220Z,11.60
2019-02-17T10:23:37.025Z,11.60
2019-02-17T10:25:12.091Z,11.50
2019-02-17T10:26:47.156Z,11.50
2019-02-17T10:28:22.348Z,12.00
2019-02-17T10:29:57.893Z,12.20
2019-02-17T10:31:33.002Z,12.60
2019-02-17T10:33:07.876Z,12.80
2019-02-17T10:34:42.728Z,13.20
2019-02-17T10:36:17.540Z,13.10
2019-02-17T10:37:52.622Z,12.80
2019-02-17T10:39:27.458Z,13.10
2019-02-17T10:41:02.273Z,13.50
2019-02-17T10:42:37.500Z,13.40
2019-02-17T11:01:39.656Z,13.70
2019-02-17T11:44:53.401Z,15.90
2019-02-17T11:48:48.983Z,16.00
2019-02-17T11:49:37.226Z,16.10
2019-02-17T11:51:12.908Z,16.40
2019-02-17T11:55:55.770Z,16.40
2019-02-17T12:00:18.767Z,17.20
2019-02-17T12:04:29.778Z,17.50
2019-02-17T12:07:07.357Z,17.20
2019-02-17T12:15:29.671Z,17.00
2019-02-17T12:17:25.132Z,17.10
2019-02-17T12:19:00.715Z,16.80
2019-02-17T12:29:16.802Z,17.30
2019-02-17T12:30:54.801Z,17.10
2019-02-17T12:34:31.347Z,17.50
2019-02-17T12:47:03.098Z,16.90
2019-02-17T13:16:44.349Z,17.00
2019-02-17T13:25:22.671Z,16.70
2019-02-17T13:31:10.251Z,15.80
2019-02-17T13:34:16.278Z,15.90
2019-02-17T13:36:25.335Z,16.00
2019-02-17T13:38:03.887Z,16.10
2019-02-17T13:43:16.829Z,16.10
2019-02-17T13:44:57.627Z,16.30
2019-02-17T13:47:17.882Z,16.20
2019-02-17T13:50:19.926Z,16.00
2019-02-17T13:51:57.312Z,16.20
2019-02-17T13:53:32.607Z,16.00
2019-02-17T13:55:10.165Z,16.10
2019-02-17T13:56:45.342Z,16.30
2019-02-17T13:58:46.691Z,16.10
2019-02-17T14:00:22.199Z,15.90
2019-02-17T14:02:08.858Z,15.70
2019-02-17T14:04:03.132Z,15.60
2019-02-17T14:05:38.489Z,15.50
2019-02-17T14:08:03.892Z,15.40
2019-02-17T14:09:41.426Z,15.50
2019-02-17T14:15:00.415Z,15.70
2019-02-17T14:16:00.195Z,15.80
2019-02-17T14:17:43.369Z,15.70
2019-02-17T14:19:18.769Z,15.80
2019-02-17T14:21:12.837Z,15.80
2019-02-17T14:23:51.213Z,16.00
2019-02-17T14:25:26.683Z,16.10
2019-02-17T14:27:01.985Z,16.00
2019-02-17T14:29:15.539Z,15.80
2019-02-17T14:30:59.759Z,15.80
2019-02-17T14:32:55.461Z,15.90
2019-02-17T14:36:46.661Z,15.80
2019-02-17T14:41:08.120Z,15.50
2019-02-17T14:42:43.534Z,15.40
2019-02-17T14:45:39.184Z,15.40
2019-02-17T14:46:49.005Z,15.40
2019-02-17T14:48:26.856Z,15.30
2019-02-17T14:50:04.125Z,15.40
2019-02-17T14:51:39.418Z,15.40
2019-02-17T14:53:34.376Z,15.10
2019-02-17T14:55:46.138Z,15.00
2019-02-17T14:57:44.912Z,14.90
2019-02-17T15:00:07.987Z,14.90
2019-02-17T15:01:43.171Z,14.80
2019-02-17T15:03:18.242Z,14.60
2019-02-17T15:11:47.007Z,14.20
2019-02-17T15:11:53.827Z,14.50
2019-02-17T15:13:25.339Z,14.10
2019-02-17T15:15:03.900Z,14.10
2019-02-17T15:16:47.116Z,13.90
2019-02-17T15:18:22.762Z,13.90
2019-02-17T15:20:09.053Z,13.80
2019-02-17T15:21:48.296Z,13.70
2019-02-17T15:23:27.743Z,13.60
2019-02-17T15:25:27.103Z,13.60
2019-02-17T15:27:07.965Z,13.50
2019-02-17T15:28:50.954Z,13.30
2019-02-17T15:30:44.480Z,13.10
2019-02-17T15:32:21.414Z,13.00
2019-02-17T15:34:00.237Z,12.80
2019-02-17T15:35:55.333Z,12.70
2019-02-17T15:37:56.035Z,12.60
2019-02-17T15:39:37.030Z,12.60
2019-02-17T15:41:14.435Z,12.50
2019-02-17T15:42:53.006Z,12.40
2019-02-17T15:44:30.103Z,12.30
2019-02-17T15:46:05.503Z,12.10
2019-02-17T15:47:40.502Z,12.10
2019-02-17T15:49:18.336Z,11.90
2019-02-17T15:50:54.192Z,11.80
2019-02-17T15:53:22.922Z,11.60
2019-02-17T15:55:08.077Z,11.40
2019-02-17T15:56:46.038Z,11.10
2019-02-17T15:58:24.265Z,10.90
2019-02-17T16:00:03.215Z,10.90
2019-02-17T16:01:39.786Z,10.80
2019-02-17T16:03:16.852Z,10.80
2019-02-17T16:04:52.023Z,10.90
2019-02-17T16:06:27.493Z,10.80
2019-02-17T16:08:03.106Z,10.80
2019-02-17T16:09:38.319Z,10.70
2019-02-17T16:11:13.902Z,10.70
2019-02-17T16:12:48.895Z,10.60
2019-02-17T16:14:24.453Z,10.50
2019-02-17T16:15:59.404Z,10.30
2019-02-17T16:17:34.776Z,10.20
2019-02-17T16:19:09.583Z,10.10
2019-02-17T16:20:44.658Z,10.00
2019-02-17T16:22:19.752Z,9.80
2019-02-17T16:23:54.819Z,9.70
2019-02-17T16:25:29.895Z,9.50
2019-02-17T16:27:05.220Z,9.30
2019-02-17T16:28:40.033Z,9.20
2019-02-17T16:30:15.830Z,9.10
2019-02-17T16:31:50.726Z,8.90
2019-02-17T16:33:25.570Z,8.80
2019-02-17T16:35:00.373Z,8.70
2019-02-17T16:36:35.203Z,8.60
2019-02-17T16:38:10.014Z,8.50
2019-02-17T16:39:45.193Z,8.60
2019-02-17T16:53:56.128Z,8.30
2019-02-17T16:55:31.098Z,7.70
2019-02-17T16:57:06.223Z,7.60
2019-02-17T16:58:41.962Z,7.50
2019-02-17T17:01:57.912Z,7.50
2019-02-17T17:03:33.477Z,7.40
2019-02-17T17:05:09.859Z,7.30
2019-02-17T17:08:19.705Z,7.20
2019-02-17T17:09:54.515Z,7.00
2019-02-17T17:11:29.326Z,7.00
2019-02-17T17:13:04.696Z,6.90
2019-02-17T17:14:39.608Z,6.80
2019-02-17T17:16:14.509Z,6.70
2019-02-17T17:17:49.625Z,6.60
2019-02-17T17:19:25.014Z,6.50
2019-02-17T17:20:59.922Z,6.40
2019-02-17T17:22:35.230Z,6.40
2019-02-17T17:24:10.537Z,6.50
2019-02-17T17:25:46.116Z,6.50
2019-02-17T17:27:21.258Z,6.50
2019-02-17T17:28:56.330Z,6.40
2019-02-17T17:30:31.298Z,6.40
2019-02-17T17:32:06.530Z,6.40
2019-02-17T17:33:41.649Z,6.20
2019-02-17T17:35:16.966Z,6.10
2019-02-17T17:36:52.228Z,5.90
2019-02-17T17:38:27.655Z,5.90
2019-02-17T17:40:05.534Z,5.90
2019-02-17T17:41:40.984Z,5.80
2019-02-17T17:43:16.129Z,5.80
2019-02-17T17:44:50.939Z,5.80
2019-02-17T17:46:26.382Z,5.90
2019-02-17T17:48:01.197Z,6.00
2019-02-17T17:49:36.032Z,6.00
2019-02-17T17:51:10.840Z,6.00
2019-02-17T17:52:46.080Z,6.00
2019-02-17T17:54:20.900Z,6.10
2019-02-17T17:55:56.339Z,6.00
2019-02-17T17:57:31.210Z,6.00
2019-02-17T17:59:06.299Z,6.00
2019-02-17T18:00:43.544Z,6.00
2019-02-17T18:02:18.548Z,5.90
2019-02-17T18:03:53.644Z,5.90
2019-02-17T18:05:28.589Z,5.80
2019-02-17T18:07:04.613Z,5.70
2019-02-17T18:08:40.354Z,5.60
2019-02-17T18:10:15.732Z,5.50
2019-02-17T18:11:50.636Z,5.40
2019-02-17T18:13:25.429Z,5.30
2019-02-17T18:15:00.336Z,5.30
2019-02-17T18:16:35.265Z,5.30
2019-02-17T18:18:10.764Z,5.30
2019-02-17T18:19:46.103Z,5.30
2019-02-17T18:21:21.243Z,5.30
2019-02-17T18:22:56.732Z,5.30
2019-02-17T18:24:31.766Z,5.30
2019-02-17T18:26:06.650Z,5.30
2019-02-17T18:27:41.586Z,5.30
2019-02-17T18:29:16.747Z,5.30
2019-02-17T18:30:51.880Z,5.30
2019-02-17T18:32:27.619Z,5.30
2019-02-17T18:34:02.437Z,5.30
2019-02-17T18:35:37.567Z,5.30
2019-02-17T18:37:12.645Z,5.30
2019-02-17T18:38:47.450Z,5.40
2019-02-17T18:40:22.633Z,5.40
2019-02-17T18:41:57.722Z,5.40
2019-02-17T18:43:32.762Z,5.30
2019-02-17T18:45:09.528Z,5.30
2019-02-17T18:46:44.432Z,5.40
2019-02-17T18:48:19.526Z,5.50
2019-02-17T18:49:55.528Z,5.60
2019-02-17T18:51:30.457Z,5.50
2019-02-17T18:53:05.244Z,5.40
2019-02-17T18:54:40.864Z,5.30
2019-02-17T18:56:15.711Z,5.30
2019-02-17T18:57:51.498Z,5.30
2019-02-17T18:59:26.582Z,5.20
2019-02-17T19:01:01.425Z,5.20
2019-02-17T19:02:36.239Z,5.10
2019-02-17T19:07:21.162Z,5.10
2019-02-17T19:08:56.123Z,5.10
2019-02-17T19:10:31.178Z,5.00
2019-02-17T19:12:05.979Z,4.90
2019-02-17T19:13:41.269Z,4.80
2019-02-17T19:15:16.615Z,4.70
2019-02-17T19:16:51.742Z,4.70
2019-02-17T19:18:26.933Z,4.60
2019-02-17T19:20:01.748Z,4.60
2019-02-17T19:21:38.981Z,4.70
2019-02-17T19:23:15.150Z,4.60
2019-02-17T19:24:52.293Z,4.50
2019-02-17T19:26:27.080Z,4.50
2019-02-17T19:28:03.681Z,4.50
2019-02-17T19:29:38.680Z,4.40
2019-02-17T19:31:13.987Z,4.40
2019-02-17T19:32:48.871Z,4.40
2019-02-17T19:34:24.375Z,4.40
2019-02-17T20:11:04.765Z,4.50
2019-02-17T20:12:39.844Z,4.20
2019-02-17T20:14:14.626Z,4.20
2019-02-17T20:15:49.727Z,4.10
2019-02-17T20:17:24.594Z,4.10
2019-02-17T20:18:59.663Z,4.00
2019-02-17T20:20:34.540Z,4.00
2019-02-17T20:22:09.430Z,3.90
2019-02-17T20:23:44.240Z,3.90
2019-02-17T20:26:53.801Z,3.80
2019-02-17T20:28:40.611Z,3.70
2019-02-17T20:30:05.922Z,3.70
2019-02-17T20:31:40.980Z,3.60
2019-02-17T20:33:15.794Z,3.50
2019-02-17T20:34:50.899Z,3.40
2019-02-17T20:36:25.943Z,3.30
2019-02-17T20:38:01.244Z,3.20
2019-02-17T20:39:36.784Z,3.30
2019-02-17T20:42:50.381Z,3.10
2019-02-17T20:44:25.181Z,3.10
2019-02-17T20:46:00.470Z,3.00
2019-02-17T20:47:35.276Z,3.10
2019-02-17T20:49:10.075Z,3.10
2019-02-17T20:50:44.905Z,3.10
2019-02-17T20:52:19.979Z,3.20
2019-02-17T20:53:55.524Z,3.20
2019-02-17T20:55:30.604Z,3.10
2019-02-17T20:57:05.441Z,2.90
2019-02-17T20:58:40.238Z,3.00
2019-02-17T21:00:14.438Z,2.90
2019-02-17T21:01:49.246Z,2.90
2019-02-17T21:03:24.150Z,2.90
2019-02-17T21:04:58.947Z,2.90
2019-02-17T21:06:34.135Z,2.80
2019-02-17T21:08:09.275Z,2.80
2019-02-17T21:57:03.123Z,2.70
2019-02-17T22:00:15.952Z,3.30
2019-02-17T22:01:51.318Z,3.40
2019-02-17T22:03:26.162Z,3.50
2019-02-17T22:05:01.233Z,3.40
2019-02-17T22:06:36.049Z,3.30
2019-02-17T22:08:12.642Z,3.30
2019-02-17T22:09:47.435Z,3.30
2019-02-17T22:11:22.253Z,3.40
2019-02-17T22:12:57.076Z,3.40
2019-02-17T22:14:32.150Z,3.50
2019-02-17T22:16:06.945Z,3.40
2019-02-17T22:17:42.042Z,3.40
2019-02-17T22:19:16.840Z,3.30
2019-02-17T22:20:51.672Z,3.30
2019-02-17T22:22:26.491Z,3.20
2019-02-17T22:24:01.553Z,3.20
2019-02-17T22:25:36.605Z,3.20
2019-02-17T22:27:11.432Z,3.10
2019-02-17T22:28:46.825Z,3.00
2019-02-17T22:30:21.668Z,3.00
2019-02-17T22:31:56.467Z,3.00
2019-02-17T22:33:31.507Z,3.00
2019-02-17T22:35:06.478Z,3.00
2019-02-17T22:36:43.772Z,3.00
2019-02-17T22:38:17.815Z,3.00
2019-02-17T22:39:52.884Z,3.00
2019-02-17T22:41:27.947Z,2.90
2019-02-17T22:43:02.761Z,2.90
2019-02-17T22:44:38.299Z,2.90
2019-02-17T22:46:13.092Z,2.90
2019-02-17T22:47:48.438Z,2.80
2019-02-17T22:49:23.311Z,2.80
2019-02-17T22:50:58.114Z,2.90
2019-02-17T22:52:33.173Z,2.80
2019-02-17T22:54:08.073Z,2.80
2019-02-17T22:55:43.254Z,2.80
2019-02-17T22:57:18.067Z,2.80
2019-02-17T22:58:53.152Z,2.80
2019-02-17T23:00:52.714Z,2.80
2019-02-17T23:02:28.006Z,2.80
2019-02-17T23:04:03.326Z,2.70
2019-02-17T23:05:38.541Z,2.70
2019-02-17T23:07:13.410Z,2.60
2019-02-17T23:08:48.482Z,2.60
2019-02-17T23:10:23.270Z,2.50
2019-02-17T23:11:58.328Z,2.60
2019-02-17T23:13:33.166Z,2.50
2019-02-17T23:15:07.962Z,2.50
2019-02-17T23:16:42.773Z,2.50
2019-02-17T23:18:17.850Z,2.50
2019-02-17T23:19:52.909Z,2.50
2019-02-17T23:21:28.207Z,2.50
2019-02-17T23:23:03.014Z,2.50
2019-02-17T23:24:38.574Z,2.50
2019-02-17T23:26:13.366Z,2.40
2019-02-17T23:27:48.261Z,2.20
2019-02-17T23:34:07.626Z,2.10
2019-02-17T23:35:42.681Z,1.60
2019-02-17T23:37:17.467Z,1.60
2019-02-17T23:38:52.353Z,1.50
2019-02-17T23:40:27.152Z,1.50
